Time;durP1;ratioP1;P1;durP2;ratioP2;P2;SDS_P1;SDS_P2;PMS_P1;PMS_P2;Temp;Humidity;BMP_temperature;BMP_pressure;BME280_temperature;BME280_humidity;BME280_pressure;Samples;Min_cycle;Max_cycle;Signal;HPM_P1;HPM_P2
2024/04/06 00:02:01;;;;;;;6.90;3.80;;;;;;;14.73;58.25;100715.10;105063;1260;64886;-55
2024/04/06 00:04:29;;;;;;;5.90;3.50;;;;;;;14.73;58.21;100713.89;105520;1260;60594;-55
2024/04/06 00:06:57;;;;;;;5.90;3.50;;;;;;;14.70;58.40;100714.66;105059;1260;62493;-56
2024/04/06 00:09:26;;;;;;;5.60;3.20;;;;;;;14.67;58.50;100713.52;105667;1259;60527;-56
2024/04/06 00:11:53;;;;;;;7.90;3.60;;;;;;;14.65;58.59;100716.21;105180;1256;60364;-56
2024/04/06 00:14:21;;;;;;;7.20;4.10;;;;;;;14.59;58.74;100719.73;105244;1254;64983;-54
2024/04/06 00:16:48;;;;;;;9.00;4.30;;;;;;;14.55;58.71;100718.33;105186;1258;60455;-55
2024/04/06 00:19:16;;;;;;;6.20;3.40;;;;;;;14.53;58.96;100722.78;104977;1255;64464;-55
2024/04/06 00:21:45;;;;;;;6.60;3.80;;;;;;;14.51;58.98;100726.60;107682;1260;60463;-55
2024/04/06 00:24:12;;;;;;;7.40;4.50;;;;;;;14.47;59.15;100724.83;105141;1260;61608;-53
2024/04/06 00:26:40;;;;;;;6.50;3.80;;;;;;;14.43;59.42;100723.33;105227;1259;64944;-55
2024/04/06 00:29:07;;;;;;;7.50;4.40;;;;;;;14.39;59.51;100727.55;105175;1260;63584;-54
2024/04/06 00:31:35;;;;;;;7.20;4.30;;;;;;;14.33;59.56;100732.14;105124;1261;63086;-55
2024/04/06 00:34:03;;;;;;;6.60;4.10;;;;;;;14.25;59.64;100731.76;105075;1254;60486;-55
2024/04/06 00:36:31;;;;;;;7.00;3.80;;;;;;;14.20;59.86;100732.76;105500;1254;60629;-56
2024/04/06 00:38:58;;;;;;;6.60;4.00;;;;;;;14.17;59.95;100730.02;105365;1256;72932;-57
2024/04/06 00:41:26;;;;;;;9.30;4.50;;;;;;;14.19;59.96;100731.27;105088;1261;61382;-56
2024/04/06 00:43:54;;;;;;;7.20;4.10;;;;;;;14.19;60.16;100736.71;108113;1257;62609;-56
2024/04/06 00:46:21;;;;;;;6.60;4.00;;;;;;;14.17;60.13;100735.70;105127;1254;60425;-56
2024/04/06 00:48:49;;;;;;;7.00;4.60;;;;;;;14.15;60.31;100735.73;105091;1256;60440;-56
2024/04/06 00:51:16;;;;;;;9.10;4.10;;;;;;;14.11;60.35;100738.88;105184;1260;64944;-55
2024/04/06 00:53:44;;;;;;;8.30;4.40;;;;;;;14.07;60.23;100744.83;105153;1254;60475;-56
2024/04/06 00:56:13;;;;;;;8.60;4.00;;;;;;;14.08;60.25;100743.85;105089;1258;62483;-56
2024/04/06 00:58:41;;;;;;;9.00;4.40;;;;;;;14.13;60.27;100744.33;105131;1256;60741;-55
2024/04/06 01:01:09;;;;;;;6.00;4.10;;;;;;;14.18;60.35;100747.61;105213;1259;60525;-54
2024/04/06 01:03:37;;;;;;;7.50;4.50;;;;;;;14.19;60.35;100746.32;105066;1256;64981;-55
2024/04/06 01:06:04;;;;;;;6.20;3.90;;;;;;;14.17;60.45;100743.81;105146;1254;61468;-54
2024/04/06 01:08:32;;;;;;;8.60;5.00;;;;;;;14.16;60.43;100737.04;105497;1257;62591;-55
2024/04/06 01:11:03;;;;;;;10.00;5.40;;;;;;;14.13;60.35;100735.50;105113;1257;60499;-55
2024/04/06 01:13:30;;;;;;;9.50;4.50;;;;;;;14.10;60.38;100736.45;105404;1260;60531;-55
2024/04/06 01:15:58;;;;;;;7.70;5.10;;;;;;;14.09;60.38;100740.26;105004;1260;63641;-56
2024/04/06 01:18:25;;;;;;;7.30;4.40;;;;;;;14.11;60.32;100735.83;105033;1254;61887;-55
2024/04/06 01:20:57;;;;;;;8.90;4.60;;;;;;;14.14;60.30;100738.43;105094;1260;62511;-57
2024/04/06 01:23:24;;;;;;;6.90;4.20;;;;;;;14.16;60.44;100741.95;105721;1259;60562;-57
2024/04/06 01:25:52;;;;;;;7.90;5.10;;;;;;;14.18;60.44;100739.98;105737;1254;60525;-57
2024/04/06 01:28:19;;;;;;;9.10;4.60;;;;;;;14.21;60.40;100741.34;105094;1255;63652;-56
2024/04/06 01:30:47;;;;;;;8.80;4.60;;;;;;;14.21;60.32;100737.10;105334;1257;60362;-54
2024/04/06 01:33:14;;;;;;;8.90;4.20;;;;;;;14.18;60.16;100733.11;105378;1258;64060;-55
2024/04/06 01:35:41;;;;;;;8.00;4.60;;;;;;;14.19;60.03;100735.27;105505;1253;60561;-61
2024/04/06 01:38:09;;;;;;;6.30;3.90;;;;;;;14.21;60.04;100730.89;105273;1257;60477;-58
2024/04/06 01:40:37;;;;;;;5.80;3.50;;;;;;;14.23;59.95;100724.59;105268;1257;65355;-57
2024/04/06 01:43:04;;;;;;;8.50;4.20;;;;;;;14.21;59.91;100724.55;105639;1260;62488;-57
2024/04/06 01:45:33;;;;;;;8.90;4.20;;;;;;;14.18;59.90;100721.20;105426;1254;63918;-56
2024/04/06 01:48:01;;;;;;;7.20;4.40;;;;;;;14.12;59.91;100718.30;105438;1254;60470;-58
2024/04/06 01:50:29;;;;;;;6.80;4.50;;;;;;;14.07;59.94;100713.16;105436;1254;60606;-56
2024/04/06 01:52:57;;;;;;;7.60;4.30;;;;;;;14.01;59.91;100715.59;105683;1253;63724;-55
2024/04/06 01:55:24;;;;;;;6.20;3.60;;;;;;;13.99;59.90;100717.36;105316;1257;60380;-56
2024/04/06 01:57:54;;;;;;;8.20;4.00;;;;;;;13.98;59.93;100719.02;105245;1254;63822;-57
2024/04/06 02:00:22;;;;;;;6.50;3.70;;;;;;;13.99;59.84;100717.41;105294;1257;60534;-55
2024/04/06 02:02:50;;;;;;;6.50;3.90;;;;;;;13.98;60.10;100719.77;106004;1257;59260;-55
2024/04/06 02:05:18;;;;;;;7.00;4.00;;;;;;;13.98;60.17;100714.69;105244;1255;65903;-55
2024/04/06 02:07:45;;;;;;;6.20;4.10;;;;;;;13.95;60.12;100712.95;105087;1256;62026;-56
2024/04/06 02:10:14;;;;;;;6.10;3.80;;;;;;;13.90;60.15;100713.21;106027;1254;63752;-58
2024/04/06 02:12:42;;;;;;;8.10;4.30;;;;;;;13.84;60.18;100713.73;105201;1259;61713;-58
2024/04/06 02:15:09;;;;;;;8.30;4.10;;;;;;;13.82;60.18;100714.43;105228;1254;61219;-58
2024/04/06 02:17:37;;;;;;;6.20;3.60;;;;;;;13.82;60.17;100712.50;105287;1254;65898;-58
2024/04/06 02:20:06;;;;;;;6.50;3.80;;;;;;;13.82;60.09;100707.92;105435;1254;61240;-57
2024/04/06 02:22:33;;;;;;;6.30;3.80;;;;;;;13.80;60.16;100710.42;105592;1257;62447;-55
2024/04/06 02:25:03;;;;;;;6.90;3.80;;;;;;;13.75;60.14;100706.98;105154;1255;61355;-56
2024/04/06 02:27:30;;;;;;;7.20;3.50;;;;;;;13.69;60.20;100704.67;105767;1257;61243;-56
2024/04/06 02:29:58;;;;;;;7.50;4.10;;;;;;;13.63;60.18;100709.45;105203;1257;64467;-55
2024/04/06 02:32:26;;;;;;;5.10;3.20;;;;;;;13.56;60.25;100711.06;105324;1254;61251;-55
2024/04/06 02:34:54;;;;;;;8.00;4.00;;;;;;;13.53;60.33;100712.20;105651;1255;65962;-58
2024/04/06 02:37:23;;;;;;;6.30;3.40;;;;;;;13.53;60.38;100709.73;105042;1253;61471;-55
2024/04/06 02:39:50;;;;;;;5.80;3.60;;;;;;;13.53;60.52;100710.96;105143;1257;61158;-56
2024/04/06 02:42:18;;;;;;;6.60;3.80;;;;;;;13.52;60.58;100709.66;106080;1257;66459;-56
2024/04/06 02:44:46;;;;;;;6.30;3.70;;;;;;;13.50;60.68;100705.05;105149;1259;61239;-54
2024/04/06 02:47:13;;;;;;;6.40;3.60;;;;;;;13.48;60.77;100705.63;105189;1252;63776;-56
2024/04/06 02:49:41;;;;;;;7.30;3.90;;;;;;;13.46;60.91;100704.89;105170;1257;61432;-57
2024/04/06 02:52:09;;;;;;;7.30;4.20;;;;;;;13.42;60.81;100714.39;105191;1258;61183;-56
2024/04/06 02:54:36;;;;;;;6.30;3.90;;;;;;;13.39;60.69;100719.63;105198;1257;66216;-57
2024/04/06 02:57:04;;;;;;;5.60;3.50;;;;;;;13.35;60.82;100723.98;105221;1254;62432;-56
2024/04/06 02:59:32;;;;;;;6.50;3.80;;;;;;;13.35;61.04;100726.68;105280;1257;65876;-57
2024/04/06 03:02:00;;;;;;;7.90;4.40;;;;;;;13.36;61.22;100725.15;105363;1257;61240;-56
2024/04/06 03:04:27;;;;;;;11.00;4.70;;;;;;;13.38;61.26;100722.02;105459;1254;61204;-56
2024/04/06 03:06:55;;;;;;;7.00;4.30;;;;;;;13.38;61.33;100720.38;105474;1251;64494;-56
2024/04/06 03:09:22;;;;;;;7.30;4.70;;;;;;;13.35;61.42;100719.38;105379;1251;61800;-56
2024/04/06 03:11:50;;;;;;;7.00;4.10;;;;;;;13.30;61.37;100719.42;105311;1252;62501;-56
2024/04/06 03:14:17;;;;;;;5.90;3.90;;;;;;;13.31;61.33;100718.38;105297;1254;61365;-55
2024/04/06 03:16:46;;;;;;;7.60;3.60;;;;;;;13.31;61.22;100713.91;105387;1254;61238;-56
2024/04/06 03:19:13;;;;;;;7.70;4.10;;;;;;;13.35;61.25;100716.09;105288;1251;68505;-57
2024/04/06 03:21:41;;;;;;;7.00;3.90;;;;;;;13.37;61.34;100717.29;105549;1256;61333;-57
2024/04/06 03:24:08;;;;;;;7.40;4.30;;;;;;;13.39;61.21;100720.32;105421;1257;65352;-56
2024/04/06 03:26:36;;;;;;;7.90;4.20;;;;;;;13.39;61.21;100719.63;105615;1257;61371;-57
2024/04/06 03:29:03;;;;;;;7.90;4.90;;;;;;;13.37;61.21;100717.45;105417;1257;61288;-57
2024/04/06 03:31:31;;;;;;;7.50;4.30;;;;;;;13.37;61.12;100712.94;105459;1251;65717;-57
2024/04/06 03:33:58;;;;;;;6.60;3.80;;;;;;;13.40;61.04;100713.20;105390;1251;61429;-56
2024/04/06 03:36:26;;;;;;;7.40;4.20;;;;;;;13.43;61.00;100711.03;105953;1257;63813;-57
2024/04/06 03:38:55;;;;;;;6.30;4.30;;;;;;;13.44;60.88;100714.48;105892;1254;61375;-55
2024/04/06 03:41:22;;;;;;;7.10;4.20;;;;;;;13.41;60.79;100707.64;106221;1253;61291;-56
2024/04/06 03:43:50;;;;;;;6.90;4.00;;;;;;;13.40;60.97;100712.69;106017;1254;65723;-56
2024/04/06 03:46:17;;;;;;;10.30;4.80;;;;;;;13.39;60.90;100717.10;105415;1257;62164;-55
2024/04/06 03:48:45;;;;;;;7.90;4.50;;;;;;;13.38;61.07;100714.26;106214;1254;63816;-55
2024/04/06 03:51:12;;;;;;;8.30;4.20;;;;;;;13.36;60.99;100710.55;105445;1254;61369;-56
2024/04/06 03:53:42;;;;;;;7.70;4.40;;;;;;;13.38;60.92;100710.53;105329;1256;61231;-55
2024/04/06 03:56:10;;;;;;;7.10;4.10;;;;;;;13.44;60.91;100708.41;105250;1257;64457;-56
2024/04/06 03:58:37;;;;;;;8.00;4.30;;;;;;;13.51;60.86;100709.77;105552;1257;61229;-57
2024/04/06 04:01:05;;;;;;;7.30;4.90;;;;;;;13.56;60.84;100707.39;105432;1251;62442;-57
2024/04/06 04:03:32;;;;;;;7.20;4.50;;;;;;;13.57;60.72;100704.13;105248;1251;61270;-57
2024/04/06 04:06:00;;;;;;;9.00;4.50;;;;;;;13.56;60.73;100706.30;105143;1253;61266;-59
2024/04/06 04:08:27;;;;;;;7.10;4.50;;;;;;;13.53;60.52;100708.17;105875;1253;64491;-57
2024/04/06 04:10:56;;;;;;;7.90;4.60;;;;;;;13.49;60.50;100706.39;105743;1253;61344;-55
2024/04/06 04:13:24;;;;;;;7.90;4.30;;;;;;;13.49;60.66;100703.23;105250;1258;62465;-59
2024/04/06 04:15:51;;;;;;;6.50;4.20;;;;;;;13.54;60.54;100703.00;105215;1257;61238;-56
2024/04/06 04:18:20;;;;;;;8.00;4.60;;;;;;;13.57;60.42;100700.27;105171;1252;61333;-57
2024/04/06 04:20:48;;;;;;;9.20;4.90;;;;;;;13.59;60.61;100702.59;105858;1253;64470;-58
2024/04/06 04:23:15;;;;;;;6.50;4.10;;;;;;;13.63;60.62;100701.52;105141;1253;61380;-55
2024/04/06 04:25:43;;;;;;;7.20;4.50;;;;;;;13.66;60.60;100698.79;105227;1257;64290;-57
2024/04/06 04:28:10;;;;;;;8.00;4.70;;;;;;;13.69;60.56;100698.69;105242;1254;61151;-57
2024/04/06 04:30:38;;;;;;;7.90;4.70;;;;;;;13.72;60.47;100696.77;105608;1253;61161;-60
2024/04/06 04:33:09;;;;;;;8.30;4.70;;;;;;;13.79;60.36;100700.28;105453;1251;65031;-57
2024/04/06 04:35:37;;;;;;;6.90;4.30;;;;;;;13.87;60.14;100708.15;105401;1253;61789;-58
2024/04/06 04:38:05;;;;;;;6.70;4.10;;;;;;;13.93;59.99;100708.52;105565;1256;62453;-56
2024/04/06 04:40:33;;;;;;;6.80;4.50;;;;;;;13.94;59.94;100706.85;105318;1253;61306;-57
2024/04/06 04:43:00;;;;;;;7.20;4.70;;;;;;;13.90;59.96;100706.29;105300;1256;61391;-55
2024/04/06 04:45:28;;;;;;;6.70;4.80;;;;;;;13.89;59.86;100706.27;106744;1253;66236;-55
2024/04/06 04:47:56;;;;;;;8.00;4.80;;;;;;;13.89;59.95;100704.17;105285;1253;61332;-56
2024/04/06 04:50:23;;;;;;;9.20;4.50;;;;;;;13.90;60.00;100705.78;105450;1251;62466;-56
2024/04/06 04:52:52;;;;;;;7.00;4.60;;;;;;;13.93;59.87;100706.27;105358;1257;61244;-56
2024/04/06 04:55:20;;;;;;;7.00;4.70;;;;;;;13.98;59.84;100705.08;105253;1257;61455;-55
2024/04/06 04:57:51;;;;;;;6.60;4.30;;;;;;;14.02;59.63;100703.63;105226;1254;65007;-55
2024/04/06 05:00:18;;;;;;;8.70;5.10;;;;;;;14.06;59.74;100703.34;109238;1252;62207;-55
2024/04/06 05:02:46;;;;;;;8.70;5.60;;;;;;;14.08;59.79;100709.81;105142;1254;63778;-56
2024/04/06 05:05:14;;;;;;;7.20;4.90;;;;;;;14.09;59.85;100709.41;105279;1253;61353;-54
2024/04/06 05:07:41;;;;;;;8.40;5.70;;;;;;;14.07;59.81;100706.91;105288;1253;62463;-54
2024/04/06 05:10:11;;;;;;;8.80;5.90;;;;;;;14.07;59.69;100705.22;105409;1251;65746;-55
2024/04/06 05:12:39;;;;;;;7.40;4.70;;;;;;;14.11;59.56;100707.11;105361;1257;61581;-55
2024/04/06 05:15:06;;;;;;;6.50;4.50;;;;;;;14.16;59.48;100703.20;105268;1256;63845;-54
2024/04/06 05:17:37;;;;;;;7.60;4.20;;;;;;;14.21;59.29;100697.80;105271;1254;61442;-55
2024/04/06 05:20:05;;;;;;;5.70;3.70;;;;;;;14.24;59.41;100702.73;105842;1257;61330;-57
2024/04/06 05:22:33;;;;;;;8.50;4.60;;;;;;;14.28;59.34;100700.24;105605;1253;65693;-55
2024/04/06 05:25:05;;;;;;;8.60;5.00;;;;;;;14.31;59.24;100699.33;105755;1256;61289;-68
2024/04/06 05:27:33;;;;;;;10.00;4.60;;;;;;;14.33;59.29;100698.29;105081;1253;63769;-70
2024/04/06 05:30:00;;;;;;;7.00;4.70;;;;;;;14.36;59.17;100701.70;105128;1253;61347;-63
2024/04/06 05:32:28;;;;;;;7.40;4.50;;;;;;;14.40;58.94;100708.41;107505;1252;59666;-59
2024/04/06 05:34:56;;;;;;;6.80;4.60;;;;;;;14.42;58.61;100710.16;105696;1253;66685;-55
2024/04/06 05:37:23;;;;;;;9.10;4.40;;;;;;;14.43;58.61;100707.38;105174;1256;68943;-57
2024/04/06 05:39:50;;;;;;;9.50;4.70;;;;;;;14.40;58.49;100706.43;105423;1257;62606;-66
2024/04/06 05:42:18;;;;;;;7.30;4.90;;;;;;;14.34;58.47;100707.85;105906;1253;61606;-64
2024/04/06 05:44:46;;;;;;;7.10;4.60;;;;;;;14.30;58.62;100711.55;105174;1253;61347;-68
2024/04/06 05:47:13;;;;;;;7.40;4.70;;;;;;;14.31;58.82;100709.33;105459;1257;64596;-65
2024/04/06 05:49:42;;;;;;;6.80;4.30;;;;;;;14.37;58.76;100709.89;105232;1257;61570;-65
2024/04/06 05:52:09;;;;;;;7.10;4.60;;;;;;;14.44;58.79;100711.89;105224;1258;63565;-62
2024/04/06 05:54:36;;;;;;;7.60;4.50;;;;;;;14.51;58.67;100713.25;105308;1257;61853;-64
2024/04/06 05:57:04;;;;;;;8.80;5.10;;;;;;;14.57;58.72;100713.95;105327;1257;61231;-62
2024/04/06 05:59:32;;;;;;;9.10;4.50;;;;;;;14.62;58.58;100713.61;105635;1253;65708;-67
2024/04/06 06:01:59;;;;;;;10.20;5.70;;;;;;;14.66;58.41;100708.64;105593;1258;61219;-61
2024/04/06 06:04:27;;;;;;;7.70;5.20;;;;;;;14.70;58.24;100702.00;105159;1257;65885;-66
2024/04/06 06:06:54;;;;;;;8.00;4.80;;;;;;;14.73;58.11;100705.11;105181;1255;61298;-70
2024/04/06 06:09:22;;;;;;;6.80;4.30;;;;;;;14.74;57.98;100707.77;104978;1253;61376;-62
2024/04/06 06:11:49;;;;;;;6.90;4.10;;;;;;;14.79;57.82;100708.21;104929;1253;65848;-65
2024/04/06 06:14:19;;;;;;;7.60;3.60;;;;;;;14.88;57.78;100707.25;105031;1253;63944;-66
2024/04/06 06:16:50;;;;;;;7.10;4.10;;;;;;;14.95;57.50;100708.88;107376;1253;62707;-67
2024/04/06 06:19:18;;;;;;;9.60;4.60;;;;;;;14.99;57.34;100707.77;104948;1254;61741;-67
2024/04/06 06:21:47;;;;;;;7.60;4.00;;;;;;;15.05;57.01;100710.05;104928;1253;61515;-67
2024/04/06 06:24:16;;;;;;;6.30;4.10;;;;;;;15.09;56.78;100711.48;105038;1257;64504;-66
2024/04/06 06:26:43;;;;;;;6.60;3.90;;;;;;;15.11;56.72;100709.09;106979;1255;61292;-66
2024/04/06 06:29:11;;;;;;;6.50;3.80;;;;;;;15.15;56.65;100705.61;105196;1253;63790;-64
2024/04/06 06:31:38;;;;;;;6.70;4.10;;;;;;;15.17;56.50;100703.59;108647;1253;61327;-68
2024/04/06 06:34:06;;;;;;;5.20;2.90;;;;;;;15.19;56.17;100702.48;105044;1257;61249;-70
2024/04/06 06:36:33;;;;;;;7.40;4.00;;;;;;;15.26;55.99;100702.39;105002;1257;65983;-68
2024/04/06 06:39:04;;;;;;;6.30;3.80;;;;;;;15.38;56.02;100697.73;105212;1257;61237;-66
2024/04/06 06:41:34;;;;;;;6.50;3.70;;;;;;;15.49;55.74;100694.41;105352;1257;63728;-59
2024/04/06 06:44:02;;;;;;;5.30;3.00;;;;;;;15.56;55.60;100691.95;105480;1257;61179;-58
2024/04/06 06:46:29;;;;;;;6.60;3.50;;;;;;;15.64;55.44;100694.23;104953;1257;61221;-65
2024/04/06 06:48:56;;;;;;;5.90;3.70;;;;;;;15.71;55.19;100688.73;104950;1253;65847;-63
2024/04/06 06:51:25;;;;;;;7.80;3.60;;;;;;;15.80;55.15;100685.64;105043;1257;61271;-64
2024/04/06 06:53:53;;;;;;;10.20;4.10;;;;;;;15.87;54.72;100680.17;105839;1253;62528;-65
2024/04/06 06:56:22;;;;;;;6.30;4.00;;;;;;;15.93;54.50;100679.31;105691;1255;61376;-64
2024/04/06 06:58:50;;;;;;;7.70;3.90;;;;;;;16.00;54.20;100676.80;106185;1254;60043;-63
2024/04/06 07:01:18;;;;;;;6.80;3.70;;;;;;;16.03;53.90;100673.77;104996;1253;65653;-55
2024/04/06 07:03:45;;;;;;;7.10;3.40;;;;;;;16.11;53.74;100671.42;105264;1257;61324;-55
2024/04/06 07:06:13;;;;;;;6.80;3.40;;;;;;;16.23;53.75;100668.81;105333;1252;63755;-61
2024/04/06 07:09:01;;;;;;;5.00;2.70;;;;;;;16.34;53.49;100663.13;105322;1257;61307;-61
2024/04/06 07:11:31;;;;;;;6.60;3.20;;;;;;;16.44;53.02;100657.92;105733;1250;61300;-59
2024/04/06 07:13:58;;;;;;;7.10;3.10;;;;;;;16.52;52.74;100656.90;106696;1256;67649;-61
2024/04/06 07:16:26;;;;;;;4.50;2.10;;;;;;;16.61;52.22;100650.68;105279;1257;61331;-59
2024/04/06 07:18:54;;;;;;;6.30;2.40;;;;;;;16.70;51.74;100652.83;105762;1256;62569;-59
2024/04/06 07:21:22;;;;;;;4.60;2.30;;;;;;;16.76;51.20;100649.67;105298;1252;61362;-63
2024/04/06 07:23:50;;;;;;;5.90;2.70;;;;;;;16.82;51.10;100647.33;105783;1251;61271;-59
2024/04/06 07:26:17;;;;;;;5.30;1.90;;;;;;;16.90;51.10;100645.44;105328;1250;64521;-61
2024/04/06 07:28:45;;;;;;;7.30;2.50;;;;;;;17.00;51.10;100642.31;105256;1251;61427;-59
2024/04/06 07:31:12;;;;;;;8.70;2.20;;;;;;;17.08;50.69;100638.09;105162;1251;66092;-65
2024/04/06 07:33:40;;;;;;;4.10;2.10;;;;;;;17.14;50.18;100632.13;105136;1251;62318;-64
2024/04/06 07:36:08;;;;;;;5.30;2.60;;;;;;;17.21;49.71;100630.71;106140;1256;61186;-64
2024/04/06 07:38:35;;;;;;;7.90;2.30;;;;;;;17.28;49.10;100623.27;105163;1257;65075;-64
2024/04/06 07:41:23;;;;;;;6.70;1.90;;;;;;;17.35;48.67;100616.73;105763;1251;61385;-68
2024/04/06 07:43:53;;;;;;;5.30;2.30;;;;;;;17.41;48.59;100611.42;106143;1253;65409;-68
2024/04/06 07:46:20;;;;;;;5.80;2.30;;;;;;;17.49;48.42;100610.67;106278;1257;61276;-62
2024/04/06 07:48:48;;;;;;;6.30;2.20;;;;;;;17.54;48.53;100605.80;106051;1251;61241;-65
2024/04/06 07:51:15;;;;;;;5.30;2.30;;;;;;;17.62;48.53;100603.54;106249;1257;66148;-59
2024/04/06 07:53:43;;;;;;;4.70;2.60;;;;;;;17.72;48.74;100599.02;105008;1250;62420;-61
2024/04/06 07:56:10;;;;;;;4.30;1.90;;;;;;;17.81;48.13;100599.03;105706;1254;62494;-67
2024/04/06 07:58:38;;;;;;;5.90;2.70;;;;;;;17.89;47.96;100595.56;105207;1253;61275;-59
2024/04/06 08:01:06;;;;;;;5.70;2.80;;;;;;;17.95;47.67;100590.88;105064;1251;61386;-61
2024/04/06 08:03:33;;;;;;;5.90;2.30;;;;;;;18.03;47.42;100582.69;105096;1257;75584;-66
2024/04/06 08:06:01;;;;;;;5.20;2.40;;;;;;;18.12;47.05;100582.09;105175;1250;63683;-67
2024/04/06 08:08:30;;;;;;;6.20;2.40;;;;;;;18.19;46.84;100579.02;105146;1253;66464;-65
2024/04/06 08:10:57;;;;;;;5.30;2.40;;;;;;;18.26;46.65;100576.65;105788;1250;62931;-69
2024/04/06 08:13:25;;;;;;;4.80;2.10;;;;;;;18.35;46.49;100577.10;107338;1255;62168;-69
2024/04/06 08:15:53;;;;;;;4.70;2.00;;;;;;;18.46;46.45;100576.14;105976;1254;66036;-63
2024/04/06 08:18:20;;;;;;;4.70;2.00;;;;;;;18.58;45.65;100572.96;105364;1253;61449;-68
2024/04/06 08:20:48;;;;;;;6.10;2.30;;;;;;;18.67;44.33;100565.98;105311;1251;62607;-63
2024/04/06 08:23:17;;;;;;;5.40;2.00;;;;;;;18.73;43.86;100563.16;105264;1254;61362;-65
2024/04/06 08:25:45;;;;;;;5.40;2.40;;;;;;;18.78;43.67;100556.17;106781;1250;62204;-68
2024/04/06 08:28:13;;;;;;;3.60;1.60;;;;;;;18.85;43.93;100552.08;106175;1250;64561;-66
2024/04/06 08:30:41;;;;;;;4.90;1.80;;;;;;;18.96;43.06;100548.55;105371;1256;71439;-69
2024/04/06 08:33:08;;;;;;;6.50;1.70;;;;;;;19.05;42.11;100540.90;105398;1253;66697;-59
2024/04/06 08:35:37;;;;;;;6.90;2.10;;;;;;;19.14;41.60;100543.48;105198;1253;61360;-59
2024/04/06 08:38:07;;;;;;;7.60;2.00;;;;;;;19.19;41.85;100546.75;105592;1250;61398;-62
2024/04/06 08:40:38;;;;;;;4.90;2.10;;;;;;;19.22;41.63;100544.30;105581;1257;68531;-59
2024/04/06 08:43:12;;;;;;;7.10;1.70;;;;;;;19.22;41.27;100538.23;105326;1258;62450;-62
2024/04/06 08:45:42;;;;;;;8.90;1.70;;;;;;;19.21;41.16;100535.88;105396;1251;64153;-66
2024/04/06 08:48:09;;;;;;;5.90;1.60;;;;;;;19.19;41.26;100534.02;105436;1251;61392;-60
2024/04/06 08:50:37;;;;;;;5.00;1.70;;;;;;;19.20;41.36;100531.17;105469;1251;61338;-54
2024/04/06 08:53:05;;;;;;;4.70;1.70;;;;;;;19.27;41.60;100529.13;105752;1251;66576;-55
2024/04/06 08:55:33;;;;;;;5.10;1.60;;;;;;;19.38;41.59;100532.30;109356;1251;60728;-61
2024/04/06 08:58:01;;;;;;;4.90;1.70;;;;;;;19.52;41.16;100525.77;109255;1252;74056;-53
2024/04/06 09:00:28;;;;;;;6.00;1.80;;;;;;;19.62;40.51;100525.99;109354;1250;58973;-60
2024/04/06 09:02:56;;;;;;;6.10;1.90;;;;;;;19.75;39.39;100523.67;107376;1251;61332;-59
2024/04/06 09:05:23;;;;;;;5.30;1.70;;;;;;;19.87;39.50;100516.61;105738;1250;64569;-61
2024/04/06 09:07:54;;;;;;;4.40;1.50;;;;;;;19.99;39.41;100510.36;105240;1256;61391;-63
2024/04/06 09:10:25;;;;;;;5.90;1.70;;;;;;;20.13;38.72;100515.76;107893;1253;66490;-71
2024/04/06 09:12:52;;;;;;;3.80;1.80;;;;;;;20.24;38.18;100513.41;106740;1251;61262;-68
2024/04/06 09:15:20;;;;;;;4.40;1.30;;;;;;;20.30;38.05;100509.35;106261;1253;61241;-62
2024/04/06 09:17:48;;;;;;;5.10;2.00;;;;;;;20.37;38.16;100505.63;105099;1250;64545;-62
2024/04/06 09:20:17;;;;;;;4.10;1.60;;;;;;;20.45;37.85;100506.55;106107;1250;63716;-65
2024/04/06 09:22:46;;;;;;;4.50;1.90;;;;;;;20.47;37.86;100507.89;105631;1258;62585;-59
2024/04/06 09:25:13;;;;;;;4.20;1.70;;;;;;;20.47;37.79;100504.77;105455;1256;61363;-63
2024/04/06 09:27:44;;;;;;;5.70;1.80;;;;;;;20.50;37.82;100494.83;105068;1252;61536;-63
2024/04/06 09:30:12;;;;;;;4.20;1.90;;;;;;;20.57;37.45;100497.89;105353;1254;64503;-64
2024/04/06 09:32:40;;;;;;;3.90;1.60;;;;;;;20.65;37.35;100492.94;105104;1253;72639;-64
2024/04/06 09:35:08;;;;;;;5.20;1.90;;;;;;;20.71;36.95;100490.39;105462;1259;64140;-62
2024/04/06 09:37:39;;;;;;;3.90;1.50;;;;;;;20.75;37.16;100481.52;105515;1253;62796;-70
2024/04/06 09:40:10;;;;;;;4.60;1.70;;;;;;;20.80;36.87;100478.61;105167;1251;61336;-66
2024/04/06 09:42:38;;;;;;;4.60;1.70;;;;;;;20.83;35.75;100478.73;105610;1256;65874;-51
2024/04/06 09:45:06;;;;;;;4.50;1.90;;;;;;;20.85;35.61;100478.30;105202;1252;61385;-55
2024/04/06 09:47:35;;;;;;;4.30;1.60;;;;;;;20.92;35.92;100474.83;109107;1250;65444;-64
2024/04/06 09:50:03;;;;;;;4.50;1.50;;;;;;;21.02;35.98;100471.11;109113;1251;59181;-63
2024/04/06 09:52:30;;;;;;;5.00;1.50;;;;;;;21.11;35.44;100467.10;109148;1250;62665;-61
2024/04/06 09:54:58;;;;;;;4.10;1.60;;;;;;;21.19;34.69;100468.26;109247;1251;75577;-56
2024/04/06 09:57:25;;;;;;;4.30;1.30;;;;;;;21.25;34.60;100470.12;109158;1250;61872;-57
2024/04/06 10:00:00;;;;;;;4.00;1.60;;;;;;;21.30;34.33;100469.57;109031;1253;62588;-54
2024/04/06 10:02:33;;;;;;;5.10;1.50;;;;;;;21.38;34.15;100470.25;109109;1250;59249;-55
2024/04/06 10:05:05;;;;;;;4.50;1.70;;;;;;;21.41;34.00;100468.39;109230;1252;59480;-56
2024/04/06 10:07:33;;;;;;;6.70;1.80;;;;;;;21.45;34.34;100465.12;108990;1252;76936;-53
2024/04/06 10:10:05;;;;;;;4.70;1.70;;;;;;;21.46;34.44;100454.22;105217;1250;71065;-53
2024/04/06 10:12:46;;;;;;;5.20;1.70;;;;;;;21.47;34.48;100457.38;106352;1253;73647;-57
2024/04/06 10:15:15;;;;;;;4.50;1.80;;;;;;;21.49;34.61;100452.87;106114;1254;61173;-55
2024/04/06 10:17:45;;;;;;;4.00;1.50;;;;;;;21.45;34.69;100450.75;105976;1252;259578;-53
2024/04/06 10:21:30;;;;;;;4.70;2.00;;;;;;;21.14;35.74;100446.05;102251;1293;601120;-59
2024/04/06 10:23:58;;;;;;;3.60;1.40;;;;;;;21.42;34.93;100437.14;106578;1266;59647;-59
2024/04/06 10:26:25;;;;;;;5.20;1.60;;;;;;;21.48;34.91;100433.54;104947;1271;59696;-59
2024/04/06 10:28:53;;;;;;;4.40;1.50;;;;;;;21.52;35.21;100431.73;104367;1275;64602;-59
2024/04/06 10:31:20;;;;;;;5.10;1.80;;;;;;;21.55;35.03;100428.66;105062;1267;61651;-59
2024/04/06 10:34:01;;;;;;;4.80;1.50;;;;;;;21.56;35.04;100427.19;104219;1267;176228;-57
2024/04/06 10:36:29;;;;;;;5.20;1.60;;;;;;;21.56;34.87;100423.73;104659;1264;62286;-58
2024/04/06 10:38:56;;;;;;;4.50;1.80;;;;;;;21.58;34.99;100417.40;104932;1264;59710;-57
2024/04/06 10:41:24;;;;;;;4.00;1.50;;;;;;;21.63;34.83;100423.17;104571;1264;63276;-57
2024/04/06 10:43:52;;;;;;;5.30;1.70;;;;;;;21.71;34.39;100418.98;104553;1263;63534;-58
2024/04/06 10:46:19;;;;;;;4.50;2.00;;;;;;;21.78;34.08;100416.70;104651;1269;64159;-57
2024/04/06 10:48:47;;;;;;;6.00;1.80;;;;;;;21.83;33.36;100414.73;106689;1263;62143;-57
2024/04/06 10:51:14;;;;;;;4.40;1.80;;;;;;;21.85;33.41;100415.20;108980;1254;58333;-56
2024/04/06 10:53:42;;;;;;;3.80;1.40;;;;;;;21.88;33.52;100417.04;108992;1254;65434;-57
2024/04/06 10:56:09;;;;;;;3.90;1.20;;;;;;;21.90;33.17;100415.36;108901;1254;62409;-58
2024/04/06 10:58:37;;;;;;;4.30;1.70;;;;;;;21.92;32.96;100413.30;109026;1254;62748;-57
2024/04/06 11:01:10;;;;;;;3.40;1.20;;;;;;;21.93;33.25;100404.98;108993;1261;58491;-59
2024/04/06 11:03:38;;;;;;;5.30;1.30;;;;;;;21.93;33.27;100403.21;108992;1254;58280;-64
2024/04/06 11:06:06;;;;;;;4.00;1.60;;;;;;;21.90;33.22;100405.64;106044;1254;67218;-54
2024/04/06 11:08:34;;;;;;;4.40;1.70;;;;;;;21.86;33.52;100401.12;105434;1255;72846;-53
2024/04/06 11:11:02;;;;;;;4.70;1.70;;;;;;;21.85;33.53;100398.23;106177;1262;64003;-57
2024/04/06 11:13:30;;;;;;;4.70;1.20;;;;;;;21.86;33.49;100390.61;105092;1258;60515;-60
2024/04/06 11:15:58;;;;;;;5.10;1.20;;;;;;;21.91;33.32;100390.23;105069;1257;60427;-57
2024/04/06 11:18:26;;;;;;;4.30;1.20;;;;;;;22.01;33.49;100387.77;105572;1260;65298;-58
2024/04/06 11:20:53;;;;;;;2.80;1.10;;;;;;;22.14;32.99;100386.60;104952;1255;72595;-58
2024/04/06 11:23:21;;;;;;;4.80;1.20;;;;;;;22.20;32.42;100381.23;105136;1263;67470;-59